Time;durP1;ratioP1;P1;durP2;ratioP2;P2;SDS_P1;SDS_P2;PMS_P1;PMS_P2;Temp;Humidity;BMP_temperature;BMP_pressure;BME280_temperature;BME280_humidity;BME280_pressure;Samples;Min_cycle;Max_cycle;Signal;HPM_P1;HPM_P2
2021/06/04 00:01:02;;;;;;;4.87;4.40;;;;;;;;;;5052083;28;20486;-76
2021/06/04 00:03:29;;;;;;;4.47;4.07;;;;;;;;;;5051860;28;20533;-76
2021/06/04 00:05:56;;;;;;;4.27;3.83;;;;;;;;;;5051892;28;20954;-76
2021/06/04 00:08:24;;;;;;;4.90;4.20;;;;;;;;;;5051293;28;20522;-73
2021/06/04 00:10:52;;;;;;;3.80;3.50;;;;;;;;;;5052765;28;20462;-76
2021/06/04 00:13:22;;;;;;;4.20;3.77;;;;;;;;;;5051630;28;20533;-73
2021/06/04 00:15:49;;;;;;;4.20;3.80;;;;;;;;;;5051986;28;20537;-75
2021/06/04 00:18:17;;;;;;;4.13;3.80;;;;;;;;;;5052417;28;20445;-76
2021/06/04 00:20:44;;;;;;;3.90;3.50;;;;;;;;;;5052274;28;20535;-76
2021/06/04 00:23:11;;;;;;;4.20;3.90;;;;;;;;;;5052167;28;20451;-76
2021/06/04 00:25:38;;;;;;;4.20;3.80;;;;;;;;;;5051611;28;20462;-76
2021/06/04 00:28:05;;;;;;;3.93;3.63;;;;;;;;;;5051547;28;20542;-76
2021/06/04 00:30:32;;;;;;;4.30;3.90;;;;;;;;;;5051415;28;20517;-76
2021/06/04 00:32:59;;;;;;;4.53;4.13;;;;;;;;;;5051959;28;20549;-76
2021/06/04 00:35:29;;;;;;;5.37;3.80;;;;;;;;;;5050545;28;20541;-76
2021/06/04 00:37:55;;;;;;;4.80;3.40;;;;;;;;;;5051864;28;20541;-76
2021/06/04 00:40:24;;;;;;;3.70;3.40;;;;;;;;;;5050810;28;20525;-76
2021/06/04 00:42:51;;;;;;;4.07;3.67;;;;;;;;;;5051952;28;20573;-76
2021/06/04 00:45:19;;;;;;;4.50;3.97;;;;;;;;;;5050970;28;20449;-75
2021/06/04 00:47:46;;;;;;;3.43;3.13;;;;;;;;;;5052405;28;20804;-75
2021/06/04 00:50:14;;;;;;;5.50;3.93;;;;;;;;;;5051981;28;20450;-76
2021/06/04 00:52:42;;;;;;;4.40;4.03;;;;;;;;;;5050853;28;20986;-77
2021/06/04 00:55:11;;;;;;;3.70;3.40;;;;;;;;;;5050809;28;20447;-77
2021/06/04 00:57:38;;;;;;;3.20;3.00;;;;;;;;;;5050576;28;20809;-77
2021/06/04 01:00:05;;;;;;;4.97;3.30;;;;;;;;;;5051285;28;20532;-76
2021/06/04 01:02:32;;;;;;;4.10;3.30;;;;;;;;;;5050899;28;20565;-76
2021/06/04 01:04:59;;;;;;;3.57;3.27;;;;;;;;;;5053633;28;20489;-76
2021/06/04 01:07:31;;;;;;;3.77;3.47;;;;;;;;;;5052439;28;20583;-76
2021/06/04 01:10:05;;;;;;;3.53;3.23;;;;;;;;;;5051802;28;20454;-76
2021/06/04 01:12:39;;;;;;;7.63;4.00;;;;;;;;;;5057747;28;20442;-77
2021/06/04 01:15:08;;;;;;;4.17;3.77;;;;;;;;;;5058410;28;20627;-77
2021/06/04 01:17:38;;;;;;;3.70;3.40;;;;;;;;;;5055072;28;20449;-77
2021/06/04 01:20:08;;;;;;;3.80;3.33;;;;;;;;;;5051017;28;20855;-76
2021/06/04 01:22:45;;;;;;;3.33;3.10;;;;;;;;;;5050892;28;20504;-76
2021/06/04 01:25:28;;;;;;;3.70;3.40;;;;;;;;;;5050515;28;20474;-76
2021/06/04 01:27:56;;;;;;;3.67;3.27;;;;;;;;;;5051117;28;20446;-77
2021/06/04 01:30:25;;;;;;;3.80;3.50;;;;;;;;;;5050425;28;20561;-76
2021/06/04 01:32:53;;;;;;;4.70;4.03;;;;;;;;;;5050653;28;20477;-77
2021/06/04 01:35:22;;;;;;;3.70;3.40;;;;;;;;;;5049339;28;20794;-76
2021/06/04 01:37:49;;;;;;;4.47;4.00;;;;;;;;;;5050662;28;20588;-76
2021/06/04 01:40:18;;;;;;;5.90;4.23;;;;;;;;;;5050774;28;20482;-77
2021/06/04 01:42:48;;;;;;;3.60;3.30;;;;;;;;;;5050144;28;20607;-76
2021/06/04 01:45:16;;;;;;;4.97;3.50;;;;;;;;;;5049956;28;20517;-76
2021/06/04 01:47:45;;;;;;;3.90;3.60;;;;;;;;;;5050592;28;20541;-74
2021/06/04 01:50:15;;;;;;;4.43;3.30;;;;;;;;;;5050814;28;20533;-76
2021/06/04 01:52:43;;;;;;;4.20;3.80;;;;;;;;;;5049458;28;20457;-76
2021/06/04 01:55:13;;;;;;;4.50;4.10;;;;;;;;;;5049862;28;20533;-76
2021/06/04 01:57:41;;;;;;;4.23;3.33;;;;;;;;;;5049586;28;20458;-76
2021/06/04 02:00:12;;;;;;;4.20;3.90;;;;;;;;;;5049850;28;20474;-76
2021/06/04 02:02:39;;;;;;;4.10;3.60;;;;;;;;;;5049835;28;20536;-76
2021/06/04 02:05:06;;;;;;;4.03;3.73;;;;;;;;;;5049354;28;20545;-76
2021/06/04 02:07:34;;;;;;;3.57;3.27;;;;;;;;;;5049345;28;20459;-77
2021/06/04 02:10:02;;;;;;;4.10;3.60;;;;;;;;;;5050311;28;20474;-76
2021/06/04 02:12:29;;;;;;;5.23;4.07;;;;;;;;;;5049658;28;20446;-76
2021/06/04 02:14:57;;;;;;;5.47;3.70;;;;;;;;;;5049756;28;20503;-76
2021/06/04 02:17:31;;;;;;;3.80;3.40;;;;;;;;;;5049090;28;20529;-76
2021/06/04 02:20:02;;;;;;;4.40;3.70;;;;;;;;;;5049977;28;20450;-76
2021/06/04 02:22:31;;;;;;;4.50;4.10;;;;;;;;;;5049221;28;20977;-76
2021/06/04 02:25:01;;;;;;;4.00;3.53;;;;;;;;;;5049373;28;20516;-76
2021/06/04 02:27:30;;;;;;;3.60;3.30;;;;;;;;;;5048998;28;20954;-76
2021/06/04 02:30:00;;;;;;;8.13;3.80;;;;;;;;;;5049759;28;20534;-76
2021/06/04 02:32:30;;;;;;;4.30;3.90;;;;;;;;;;5048959;28;20446;-76
2021/06/04 02:35:00;;;;;;;4.77;3.80;;;;;;;;;;5050019;28;20454;-76
2021/06/04 02:37:30;;;;;;;3.87;3.53;;;;;;;;;;5049640;28;20912;-76
2021/06/04 02:39:59;;;;;;;4.47;3.57;;;;;;;;;;5053803;28;20451;-76
2021/06/04 02:42:27;;;;;;;3.97;3.63;;;;;;;;;;5049447;28;20977;-76
2021/06/04 02:44:56;;;;;;;3.73;3.30;;;;;;;;;;5049346;28;20453;-76
2021/06/04 02:47:25;;;;;;;4.67;3.97;;;;;;;;;;5049233;28;21028;-74
2021/06/04 02:49:54;;;;;;;5.43;4.23;;;;;;;;;;5049956;28;20525;-76
2021/06/04 02:52:30;;;;;;;4.40;4.00;;;;;;;;;;5049312;28;20628;-76
2021/06/04 02:54:57;;;;;;;3.80;3.27;;;;;;;;;;5049530;28;20513;-76
2021/06/04 02:57:25;;;;;;;4.60;4.20;;;;;;;;;;5048860;28;20541;-76
2021/06/04 02:59:52;;;;;;;4.40;4.00;;;;;;;;;;5049510;28;20860;-76
2021/06/04 03:02:21;;;;;;;3.70;3.20;;;;;;;;;;5048635;28;20537;-75
2021/06/04 03:04:50;;;;;;;4.43;3.97;;;;;;;;;;5048821;28;20454;-76
2021/06/04 03:07:20;;;;;;;3.90;3.60;;;;;;;;;;5049129;28;20571;-73
2021/06/04 03:09:47;;;;;;;5.27;4.77;;;;;;;;;;5049242;28;21000;-74
2021/06/04 03:12:16;;;;;;;4.20;3.80;;;;;;;;;;5049385;28;20500;-76
2021/06/04 03:14:43;;;;;;;5.10;4.33;;;;;;;;;;5048623;28;20557;-74
2021/06/04 03:17:11;;;;;;;4.67;4.27;;;;;;;;;;5049145;28;20474;-76
2021/06/04 03:19:37;;;;;;;6.20;4.70;;;;;;;;;;5050990;28;20456;-76
2021/06/04 03:22:07;;;;;;;4.67;4.27;;;;;;;;;;5052541;28;20459;-76
2021/06/04 03:24:36;;;;;;;8.33;5.63;;;;;;;;;;5051446;28;20523;-76
2021/06/04 03:27:04;;;;;;;4.80;4.40;;;;;;;;;;5052750;28;21520;-75
2021/06/04 03:29:31;;;;;;;5.67;4.70;;;;;;;;;;5052380;28;20522;-76
2021/06/04 03:31:58;;;;;;;4.43;4.03;;;;;;;;;;5052707;28;20514;-76
2021/06/04 03:34:25;;;;;;;4.90;4.40;;;;;;;;;;5051891;28;20453;-75
2021/06/04 03:36:53;;;;;;;5.33;4.63;;;;;;;;;;5052679;28;20560;-76
2021/06/04 03:39:21;;;;;;;5.70;5.20;;;;;;;;;;5051977;28;20525;-75
2021/06/04 03:41:50;;;;;;;5.23;4.73;;;;;;;;;;5052432;28;20528;-76
2021/06/04 03:44:18;;;;;;;5.93;4.87;;;;;;;;;;5052149;28;20891;-75
2021/06/04 03:46:45;;;;;;;4.83;4.43;;;;;;;;;;5052213;28;20529;-75
2021/06/04 03:49:13;;;;;;;5.43;4.80;;;;;;;;;;5052428;28;20481;-76
2021/06/04 03:51:40;;;;;;;5.13;4.63;;;;;;;;;;5051746;28;20589;-76
2021/06/04 03:54:09;;;;;;;6.63;5.33;;;;;;;;;;5056106;28;20480;-76
2021/06/04 03:56:36;;;;;;;5.80;5.20;;;;;;;;;;5071385;28;20452;-77
2021/06/04 03:59:05;;;;;;;6.60;6.00;;;;;;;;;;5072394;28;20556;-76
2021/06/04 04:01:34;;;;;;;5.83;5.23;;;;;;;;;;5060088;28;20490;-77
2021/06/04 04:04:00;;;;;;;5.07;4.67;;;;;;;;;;5052122;28;20554;-76
2021/06/04 04:06:27;;;;;;;5.87;5.03;;;;;;;;;;5050616;28;20447;-78
2021/06/04 04:08:54;;;;;;;6.20;5.40;;;;;;;;;;5051808;28;20465;-76
2021/06/04 04:11:21;;;;;;;5.13;4.63;;;;;;;;;;5051741;28;20870;-76
2021/06/04 04:13:48;;;;;;;5.60;5.07;;;;;;;;;;5052092;28;20504;-76
2021/06/04 04:16:16;;;;;;;5.20;4.40;;;;;;;;;;5052030;28;20486;-76
2021/06/04 04:18:43;;;;;;;5.40;4.90;;;;;;;;;;5051839;28;20454;-73
2021/06/04 04:21:11;;;;;;;7.67;5.43;;;;;;;;;;5051768;28;20453;-77
2021/06/04 04:23:39;;;;;;;5.07;4.57;;;;;;;;;;5051044;28;20489;-76
2021/06/04 04:26:06;;;;;;;4.97;4.57;;;;;;;;;;5051306;28;20450;-76
2021/06/04 04:28:35;;;;;;;5.60;5.10;;;;;;;;;;5050991;28;20861;-76
2021/06/04 04:31:03;;;;;;;9.43;4.83;;;;;;;;;;5051184;28;20457;-76
2021/06/04 04:33:31;;;;;;;5.73;4.83;;;;;;;;;;5050943;28;20568;-76
2021/06/04 04:35:58;;;;;;;5.00;4.50;;;;;;;;;;5051095;28;20453;-75
2021/06/04 04:38:25;;;;;;;4.97;4.57;;;;;;;;;;5050679;28;20485;-76
2021/06/04 04:40:58;;;;;;;5.73;5.13;;;;;;;;;;5051382;28;20507;-75
2021/06/04 04:43:25;;;;;;;4.93;4.53;;;;;;;;;;5050394;28;20458;-76
2021/06/04 04:45:52;;;;;;;6.20;4.77;;;;;;;;;;5051014;28;20474;-75
2021/06/04 04:48:18;;;;;;;7.30;4.93;;;;;;;;;;5051042;28;20539;-74
2021/06/04 04:50:46;;;;;;;6.63;5.17;;;;;;;;;;5051185;28;20584;-76
2021/06/04 04:53:13;;;;;;;5.30;4.90;;;;;;;;;;5051171;28;20500;-76
2021/06/04 04:55:40;;;;;;;5.43;4.93;;;;;;;;;;5050493;28;20810;-75
2021/06/04 04:58:07;;;;;;;7.10;4.63;;;;;;;;;;5051474;28;20538;-74
2021/06/04 05:00:35;;;;;;;4.13;3.67;;;;;;;;;;5050617;28;20549;-77
2021/06/04 05:03:02;;;;;;;4.50;4.10;;;;;;;;;;5051096;28;20450;-77
2021/06/04 05:05:31;;;;;;;4.80;4.27;;;;;;;;;;5049836;28;20458;-75
2021/06/04 05:07:59;;;;;;;5.07;4.57;;;;;;;;;;5051179;28;20446;-76
2021/06/04 05:10:26;;;;;;;6.63;4.60;;;;;;;;;;5050376;28;20474;-75
2021/06/04 05:12:52;;;;;;;5.30;4.80;;;;;;;;;;5052193;28;20508;-75
2021/06/04 05:15:20;;;;;;;6.17;4.63;;;;;;;;;;5050142;28;20946;-74
2021/06/04 05:17:47;;;;;;;5.03;4.63;;;;;;;;;;5051621;28;20533;-75
2021/06/04 05:20:16;;;;;;;5.60;4.73;;;;;;;;;;5051612;28;20500;-77
2021/06/04 05:22:42;;;;;;;6.30;4.10;;;;;;;;;;5052654;28;20549;-76
2021/06/04 05:25:16;;;;;;;5.80;4.50;;;19.90;99.90;;;;;;5050397;28;20585;-76
2021/06/04 05:27:44;;;;;;;5.70;5.20;;;18.70;99.90;;;;;;5050309;28;20461;-76
2021/06/04 05:30:16;;;;;;;4.83;4.40;;;18.80;99.90;;;;;;5050544;28;20438;-76
2021/06/04 05:32:43;;;;;;;4.60;4.20;;;18.80;99.90;;;;;;5049782;28;20473;-75
2021/06/04 05:35:11;;;;;;;7.83;5.23;;;18.70;99.90;;;;;;5050185;28;20458;-76
2021/06/04 05:37:37;;;;;;;5.00;4.60;;;18.70;99.90;;;;;;5050001;28;20454;-76
2021/06/04 05:40:05;;;;;;;5.00;4.47;;;;;;;;;;5050557;28;20501;-76
2021/06/04 05:42:33;;;;;;;4.90;4.50;;;;;;;;;;5049077;28;20450;-75
2021/06/04 05:44:59;;;;;;;4.50;4.10;;;18.80;99.90;;;;;;5050488;28;20450;-76
2021/06/04 05:47:26;;;;;;;4.70;4.33;;;19.50;99.90;;;;;;5049929;28;20537;-76
2021/06/04 05:49:52;;;;;;;6.03;4.87;;;19.60;99.90;;;;;;5050653;28;20481;-76
2021/06/04 05:52:18;;;;;;;7.13;4.70;;;19.70;99.90;;;;;;5049561;28;20478;-73
2021/06/04 05:54:47;;;;;;;4.50;4.10;;;19.90;99.90;;;;;;5049632;28;20561;-76
2021/06/04 05:57:14;;;;;;;4.90;4.50;;;20.00;99.90;;;;;;5050164;28;20546;-76
2021/06/04 05:59:42;;;;;;;4.90;4.40;;;20.00;99.90;;;;;;5049428;28;20500;-75
2021/06/04 06:02:10;;;;;;;4.77;4.20;;;20.20;99.90;;;;;;5050115;28;20541;-76
2021/06/04 06:04:37;;;;;;;5.07;3.97;;;20.30;99.90;;;;;;5048996;28;20648;-76
2021/06/04 06:07:04;;;;;;;3.77;3.47;;;20.40;99.90;;;;;;5049672;28;20541;-73
2021/06/04 06:09:30;;;;;;;4.47;4.10;;;20.60;99.90;;;;;;5049461;28;20524;-77
2021/06/04 06:11:57;;;;;;;3.87;3.57;;;20.70;99.90;;;;;;5049561;28;20517;-76
2021/06/04 06:14:23;;;;;;;4.00;3.53;;;20.80;99.90;;;;;;5048352;28;21006;-76
2021/06/04 06:16:51;;;;;;;4.10;3.70;;;20.90;99.90;;;;;;5049735;28;20446;-77
2021/06/04 06:19:20;;;;;;;4.07;3.67;;;20.90;99.90;;;;;;5049681;28;20470;-76
2021/06/04 06:21:50;;;;;;;4.63;4.20;;;21.00;99.90;;;;;;5049840;28;20454;-74
2021/06/04 06:24:17;;;;;;;4.23;3.17;;;21.10;99.90;;;;;;5048778;28;20458;-73
2021/06/04 06:26:44;;;;;;;4.60;3.77;;;21.20;99.90;;;;;;5049808;28;20450;-76
2021/06/04 06:29:13;;;;;;;11.03;3.87;;;21.30;94.70;;;;;;5049719;28;20588;-77
2021/06/04 06:31:43;;;;;;;3.70;3.40;;;21.40;60.50;;;;;;5049377;28;20576;-77
2021/06/04 06:34:11;;;;;;;4.00;3.60;;;21.40;14.20;;;;;;5049582;28;20493;-76
2021/06/04 06:36:41;;;;;;;5.30;4.20;;;21.50;1.00;;;;;;5048960;28;20442;-76
2021/06/04 06:39:10;;;;;;;5.90;4.10;;;21.40;66.90;;;;;;5049725;28;20488;-77
2021/06/04 06:41:37;;;;;;;4.50;4.10;;;21.40;99.90;;;;;;5048958;28;21391;-76
2021/06/04 06:44:04;;;;;;;5.10;4.20;;;21.40;99.90;;;;;;5049322;28;20537;-76
2021/06/04 06:46:31;;;;;;;6.43;4.30;;;21.50;20.40;;;;;;5048689;28;20450;-77
2021/06/04 06:48:59;;;;;;;5.47;4.50;;;21.50;51.90;;;;;;5049821;28;20529;-76
2021/06/04 06:51:27;;;;;;;9.13;4.47;;;21.40;98.20;;;;;;5048491;28;20457;-77
2021/06/04 06:53:53;;;;;;;6.47;4.00;;;21.40;35.60;;;;;;5052089;28;20481;-76
2021/06/04 06:56:20;;;;;;;4.43;4.03;;;21.40;52.30;;;;;;5052592;28;20883;-76
2021/06/04 06:58:48;;;;;;;6.50;3.87;;;21.50;15.60;;;;;;5053311;28;20474;-76
2021/06/04 07:01:15;;;;;;;6.17;4.17;;;21.70;1.00;;;;;;5053509;28;20542;-77
2021/06/04 07:03:43;;;;;;;4.93;4.40;;;21.60;1.00;;;;;;5053380;28;20462;-77
2021/06/04 07:06:12;;;;;;;6.77;4.10;;;21.60;1.00;;;;;;5052740;28;20477;-76
2021/06/04 07:08:41;;;;;;;5.00;3.80;;;21.60;1.00;;;;;;5053178;28;20450;-76
2021/06/04 07:11:07;;;;;;;4.17;3.87;;;21.60;1.00;;;;;;5053290;28;20918;-76
2021/06/04 07:13:34;;;;;;;5.50;4.50;;;21.70;1.00;;;;;;5052301;28;20696;-77
2021/06/04 07:16:04;;;;;;;4.57;4.10;;;21.70;1.00;;;;;;5052755;28;20491;-76
2021/06/04 07:18:31;;;;;;;4.00;3.60;;;21.70;1.00;;;;;;5052594;28;20454;-77
2021/06/04 07:20:58;;;;;;;8.97;4.60;;;21.60;1.00;;;;;;5053031;28;20454;-77
2021/06/04 07:23:26;;;;;;;4.83;4.33;;;21.60;1.00;;;;;;5052269;28;20446;-75
2021/06/04 07:25:54;;;;;;;4.70;3.80;;;21.60;1.00;;;;;;5053335;28;20461;-76
2021/06/04 07:28:24;;;;;;;4.83;3.63;;;21.70;1.00;;;;;;5052404;28;20500;-77
2021/06/04 07:30:51;;;;;;;5.50;3.57;;;21.80;1.00;;;;;;5053945;28;20525;-77
2021/06/04 07:33:21;;;;;;;4.53;3.73;;;21.90;1.00;;;;;;5064221;28;20512;-73
2021/06/04 07:35:49;;;;;;;4.93;4.00;;;22.00;1.00;;;;;;5072452;28;20945;-75
2021/06/04 07:38:15;;;;;;;7.87;4.40;;;22.20;99.90;;;;;;5067033;28;20525;-75
2021/06/04 07:40:42;;;;;;;4.07;3.60;;;22.20;99.90;;;;;;5065951;28;20854;-77
2021/06/04 07:43:12;;;;;;;3.97;3.67;;;22.30;99.90;;;;;;5072680;28;20537;-76
2021/06/04 07:45:40;;;;;;;5.37;4.40;;;22.50;1.00;;;;;;5071533;28;20488;-76
2021/06/04 07:48:08;;;;;;;4.20;3.73;;;22.50;1.00;;;;;;5072497;28;20492;-76
2021/06/04 07:50:35;;;;;;;4.80;4.27;;;22.60;1.00;;;;;;5072264;28;20524;-76
2021/06/04 07:53:02;;;;;;;7.43;4.90;;;22.70;99.90;;;;;;5065082;28;20516;-76
2021/06/04 07:55:29;;;;;;;5.77;3.53;;;22.70;89.40;;;;;;5068025;28;20441;-76
2021/06/04 07:57:55;;;;;;;8.47;5.20;;;23.20;1.00;;;;;;5073844;28;20524;-76
2021/06/04 08:00:26;;;;;;;4.70;3.70;;;23.20;99.90;;;;;;5070866;28;20528;-75
2021/06/04 08:02:54;;;;;;;5.83;4.23;;;23.30;99.90;;;;;;5053324;28;20439;-76
2021/06/04 08:05:21;;;;;;;3.97;3.50;;;23.40;1.00;;;;;;5051493;28;20545;-76
2021/06/04 08:07:47;;;;;;;5.60;3.70;;;23.50;1.00;;;;;;5053188;28;20479;-76
2021/06/04 08:10:15;;;;;;;5.03;3.60;;;23.40;99.90;;;;;;5053341;28;20799;-77
2021/06/04 08:12:43;;;;;;;4.13;3.73;;;23.60;1.00;;;;;;5052735;28;20480;-77
2021/06/04 08:15:13;;;;;;;4.70;4.00;;;23.60;1.00;;;;;;5052766;28;20453;-77
2021/06/04 08:17:42;;;;;;;5.43;3.33;;;23.50;99.90;;;;;;5052680;28;20466;-77
2021/06/04 08:20:11;;;;;;;3.63;3.33;;;23.80;1.00;;;;;;5052937;28;20938;-76
2021/06/04 08:22:41;;;;;;;4.70;2.83;;;24.00;99.90;;;;;;5052314;28;20478;-76
2021/06/04 08:25:08;;;;;;;3.07;2.73;;;24.00;64.20;;;;;;5052455;28;20457;-77
2021/06/04 08:27:35;;;;;;;4.30;3.23;;;24.10;99.90;;;;;;5052364;28;21002;-77
2021/06/04 08:30:01;;;;;;;3.23;2.93;;;24.00;99.90;;;;;;5052884;28;20462;-77
2021/06/04 08:32:28;;;;;;;4.17;3.70;;;24.20;99.90;;;;;;5052432;28;20485;-76
2021/06/04 08:34:56;;;;;;;4.87;3.70;;;24.40;1.00;;;;;;5052693;28;20486;-77
2021/06/04 08:37:22;;;;;;;4.30;3.37;;;24.30;35.60;;;;;;5052262;28;20528;-76
2021/06/04 08:39:48;;;;;;;5.80;3.03;;;24.20;1.00;;;;;;5053318;28;20531;-75
2021/06/04 08:42:29;;;;;;;7.23;3.83;;;24.10;1.00;;;;;;5053048;28;20485;-77
2021/06/04 08:45:12;;;;;;;3.57;2.67;;;24.20;1.00;;;;;;5052502;28;20795;-76
2021/06/04 08:47:42;;;;;;;3.87;3.10;;;24.40;99.90;;;;;;5052249;28;20446;-77
2021/06/04 08:50:25;;;;;;;5.00;3.30;;;24.40;13.20;;;;;;5052709;28;20473;-76
2021/06/04 08:52:59;;;;;;;6.10;3.13;;;24.50;1.00;;;;;;5052353;28;20543;-77
2021/06/04 08:55:31;;;;;;;4.53;3.70;;;25.00;1.00;;;;;;5051474;28;20434;-77
2021/06/04 08:58:07;;;;;;;3.27;2.20;;;24.90;1.00;;;;;;5052182;28;20530;-77
2021/06/04 09:00:37;;;;;;;3.07;2.60;;;24.90;1.00;;;;;;5051629;28;20490;-76
2021/06/04 09:03:07;;;;;;;5.00;3.50;;;25.00;1.00;;;;;;5052342;28;20450;-77
2021/06/04 09:05:41;;;;;;;5.93;2.90;;;25.00;1.00;;;;;;5050826;28;20667;-75
2021/06/04 09:08:11;;;;;;;4.03;3.20;;;25.00;1.00;;;;;;5051634;28;20441;-75
2021/06/04 09:10:48;;;;;;;4.73;3.27;;;25.00;1.00;;;;;;5051044;28;20462;-76
2021/06/04 09:13:20;;;;;;;5.40;3.57;;;25.10;1.00;;;;;;5051739;28;20858;-75
2021/06/04 09:15:47;;;;;;;5.30;2.80;;;25.10;1.00;;;;;;5052239;28;20450;-75
2021/06/04 09:18:16;;;;;;;3.40;2.87;;;25.20;1.00;;;;;;5052506;28;20453;-76
2021/06/04 09:20:51;;;;;;;5.83;3.00;;;25.30;1.00;;;;;;5052242;28;20533;-76
2021/06/04 09:23:20;;;;;;;7.30;3.93;;;25.40;1.00;;;;;;5051112;28;20445;-75
2021/06/04 09:25:47;;;;;;;3.70;3.20;;;25.50;1.00;;;;;;5051711;28;20454;-76
2021/06/04 09:28:27;;;;;;;5.20;3.10;;;25.70;1.00;;;;;;5052757;28;20972;-78
2021/06/04 09:30:57;;;;;;;3.40;3.07;;;25.70;1.00;;;;;;5052541;28;20449;-77
2021/06/04 09:33:27;;;;;;;4.80;3.63;;;25.70;1.00;;;;;;5050481;28;21001;-77
2021/06/04 09:36:05;;;;;;;4.27;3.50;;;25.90;1.00;;;;;;5051377;28;20458;-77
2021/06/04 09:38:34;;;;;;;4.20;3.30;;;;;;;;;;5051140;28;20499;-77
2021/06/04 09:41:13;;;;;;;4.83;3.23;;;;;;;;;;5051443;28;20868;-76
2021/06/04 09:43:39;;;;;;;3.43;3.07;;;;;;;;;;5050901;28;20472;-76
2021/06/04 09:46:07;;;;;;;4.40;3.80;;;;;;;;;;5050676;28;20463;-76
2021/06/04 09:48:37;;;;;;;7.27;3.80;;;;;;;;;;5050392;28;20515;-77
2021/06/04 09:51:12;;;;;;;7.63;4.00;;;;;;;;;;5051249;28;20453;-76
2021/06/04 09:53:38;;;;;;;5.07;4.20;;;;;;;;;;5050886;28;20529;-76
2021/06/04 09:56:17;;;;;;;3.73;3.43;;;;;;;;;;5051152;28;20521;-77
2021/06/04 09:58:51;;;;;;;4.10;3.70;;;;;;;;;;5051133;28;20587;-77
2021/06/04 10:01:18;;;;;;;6.43;3.77;;;;;;;;;;5050840;28;20504;-75
2021/06/04 10:03:52;;;;;;;6.33;3.60;;;;;;;;;;5051245;28;20553;-76
2021/06/04 10:06:28;;;;;;;3.23;2.87;;;;;;;;;;5050919;28;20466;-74
2021/06/04 10:08:56;;;;;;;3.50;3.20;;;;;;;;;;5051250;28;20849;-77
2021/06/04 10:11:23;;;;;;;17.73;4.47;;;;;;;;;;5050304;28;20534;-77
2021/06/04 10:13:53;;;;;;;11.93;4.70;;;;;;;;;;5050402;28;20573;-76
2021/06/04 10:16:29;;;;;;;3.53;3.23;;;;;;;;;;5050515;28;20450;-75
2021/06/04 10:18:56;;;;;;;5.87;2.97;;;;;;;;;;5050949;28;20446;-77
2021/06/04 10:21:28;;;;;;;3.17;2.90;;;;;;;;;;5050454;28;20533;-77
2021/06/04 10:23:56;;;;;;;3.90;3.30;;;;;;;;;;5050913;28;20478;-77
2021/06/04 10:26:25;;;;;;;5.37;3.30;;;25.80;1.00;;;;;;5050428;28;20461;-77
2021/06/04 10:28:54;;;;;;;4.13;3.40;;;26.60;1.00;;;;;;5053924;28;20532;-75
2021/06/04 10:31:41;;;;;;;3.77;3.43;;;26.50;1.00;;;;;;5053851;28;20529;-72
2021/06/04 10:34:23;;;;;;;4.40;3.63;;;26.50;1.00;;;;;;5054768;28;20501;-76
2021/06/04 10:36:54;;;;;;;2.77;2.40;;;26.40;1.00;;;;;;5054873;28;20460;-75
2021/06/04 10:39:24;;;;;;;4.63;3.53;;;26.40;1.00;;;;;;5054284;28;20449;-75
2021/06/04 10:42:00;;;;;;;3.13;2.83;;;26.00;1.00;;;;;;5055255;28;20441;-75
2021/06/04 10:44:35;;;;;;;4.13;2.80;;;26.30;1.00;;;;;;5053649;28;20528;-75
2021/06/04 10:47:08;;;;;;;3.50;2.83;;;26.60;1.00;;;;;;5054523;28;20444;-75
2021/06/04 10:50:00;;;;;;;3.83;3.17;;;26.60;1.00;;;;;;5054218;28;20532;-75
2021/06/04 10:52:42;;;;;;;5.00;3.10;;;26.70;99.90;;;;;;5054008;28;20572;-75
2021/06/04 10:55:16;;;;;;;4.87;3.30;;;26.40;1.00;;;;;;5054512;28;20452;-76
2021/06/04 10:57:49;;;;;;;5.10;3.20;;;26.10;1.00;;;;;;5054258;28;20997;-76
2021/06/04 11:00:20;;;;;;;8.17;3.60;;;25.90;1.00;;;;;;5054588;28;20517;-75
2021/06/04 11:02:54;;;;;;;3.97;3.10;;;25.80;1.00;;;;;;5054116;28;20477;-74
2021/06/04 11:05:35;;;;;;;5.60;3.83;;;;;;;;;;5053350;28;20580;-74
2021/06/04 11:08:08;;;;;;;3.73;3.43;;;;;;;;;;5037682;28;20884;-76
2021/06/04 11:10:39;;;;;;;4.87;3.40;;;;;;;;;;5053661;28;20523;-76
2021/06/04 11:13:16;;;;;;;3.30;3.00;;;;;;;;;;5053833;28;21013;-76
2021/06/04 11:15:50;;;;;;;3.30;3.00;;;;;;;;;;5053219;28;20452;-75
2021/06/04 11:18:24;;;;;;;3.60;3.30;;;;;;;;;;5069502;28;20801;-75
2021/06/04 11:20:53;;;;;;;4.93;3.43;;;;;;;;;;5062708;28;20953;-76
2021/06/04 11:23:27;;;;;;;3.60;3.30;;;;;;;;;;5072933;28;20510;-75
2021/06/04 11:25:56;;;;;;;3.60;3.30;;;;;;;;;;5073995;28;20448;-76
2021/06/04 11:28:27;;;;;;;3.60;3.30;;;;;;;;;;5054064;28;20542;-77
2021/06/04 11:30:55;;;;;;;4.50;3.37;;;;;;;;;;5053681;28;20529;-78
2021/06/04 11:33:22;;;;;;;5.60;3.43;;;;;;;;;;5052995;28;20576;-78
2021/06/04 11:35:51;;;;;;;4.40;4.00;;;;;;;;;;5046306;28;20446;-79
2021/06/04 11:38:22;;;;;;;7.03;3.63;;;;;;;;;;5054760;28;20525;-72
2021/06/04 11:40:51;;;;;;;4.10;3.07;;;;;;;;;;5052693;28;20442;-79
2021/06/04 11:43:25;;;;;;;3.30;3.10;;;;;;;;;;5052684;28;20489;-72
2021/06/04 11:46:11;;;;;;;3.60;3.30;;;;;;;;;;5053059;28;20597;-79
2021/06/04 11:48:39;;;;;;;3.97;3.60;;;;;;;;;;5062931;28;20537;-80
2021/06/04 11:51:25;;;;;;;3.83;3.30;;;;;;;;;;5053190;28;21092;-75
2021/06/04 11:53:52;;;;;;;4.70;3.20;;;;;;;;;;5052140;28;20547;-80
2021/06/04 11:56:33;;;;;;;3.97;3.67;;;;;;;;;;5060658;28;20488;-74
2021/06/04 11:59:01;;;;;;;3.73;3.30;;;;;;;;;;5051226;28;20501;-77
2021/06/04 12:01:45;;;;;;;5.50;3.53;;;;;;;;;;5050956;28;21009;-78
2021/06/04 12:04:15;;;;;;;6.60;4.33;;;;;;;;;;5062634;28;20450;-78
2021/06/04 12:07:01;;;;;;;4.87;3.50;;;;;;;;;;5053333;28;20537;-78
2021/06/04 12:09:39;;;;;;;7.50;3.50;;;;;;;;;;5057531;28;20456;-75
2021/06/04 12:12:54;;;;;;;4.00;3.67;;;25.90;1.00;;;;;;5054290;28;20561;-72
2021/06/04 12:15:49;;;;;;;5.37;3.70;;;24.10;1.00;;;;;;5068262;28;20469;-74
2021/06/04 12:18:51;;;;;;;7.73;3.70;;;24.30;1.00;;;;;;5057415;28;20457;-77
2021/06/04 12:21:56;;;;;;;9.77;3.83;;;24.10;1.00;;;;;;5052544;28;20471;-75
2021/06/04 12:24:59;;;;;;;4.23;3.83;;;23.90;99.90;;;;;;5051942;28;20470;-77
2021/06/04 12:27:58;;;;;;;4.00;3.33;;;23.70;1.00;;;;;;5051914;28;20438;-76
2021/06/04 12:30:59;;;;;;;8.83;4.70;;;23.60;90.00;;;;;;5052457;28;20489;-73
2021/06/04 12:34:02;;;;;;;7.77;3.23;;;22.00;99.90;;;;;;5051848;28;20498;-69
2021/06/04 12:37:03;;;;;;;10.07;4.10;;;18.30;99.90;;;;;;5051338;28;20446;-70
2021/06/04 12:39:50;;;;;;;7.13;4.20;;;17.80;99.90;;;;;;5051763;28;20470;-70
2021/06/04 12:42:20;;;;;;;6.30;3.90;;;17.30;99.90;;;;;;5052175;28;20576;-69
2021/06/04 12:44:54;;;;;;;6.77;4.03;;;17.30;99.90;;;;;;5052458;28;20470;-71
2021/06/04 12:47:25;;;;;;;7.20;4.20;;;17.90;99.90;;;;;;5051723;28;20450;-70
2021/06/04 12:50:03;;;;;;;4.23;3.30;;;17.90;99.90;;;;;;5052666;28;20523;-70
2021/06/04 12:52:30;;;;;;;6.40;3.93;;;17.90;99.90;;;;;;5050195;28;20469;-70
2021/06/04 12:55:12;;;;;;;5.23;3.90;;;18.00;99.90;;;;;;5058308;28;20446;-70
2021/06/04 12:57:38;;;;;;;5.30;4.60;;;;;;;;;;5051045;28;20452;-70
2021/06/04 13:00:14;;;;;;;3.97;3.43;;;;;;;;;;5051574;28;20486;-71
2021/06/04 13:02:41;;;;;;;4.70;3.33;;;18.30;99.90;;;;;;5049950;28;21024;-70
2021/06/04 13:05:10;;;;;;;5.70;3.63;;;19.10;99.90;;;;;;5055548;28;20446;-70
2021/06/04 13:07:41;;;;;;;4.33;3.20;;;19.20;99.90;;;;;;5058539;28;20830;-71
2021/06/04 13:10:10;;;;;;;3.63;3.00;;;;;;;;;;5051307;28;20447;-71
2021/06/04 13:12:38;;;;;;;4.60;4.03;;;;;;;;;;5051007;28;20560;-71
2021/06/04 13:15:14;;;;;;;4.27;2.93;;;;;;;;;;5050402;28;20443;-70
2021/06/04 13:17:40;;;;;;;5.23;2.87;;;;;;;;;;5061385;28;20524;-68
2021/06/04 13:20:12;;;;;;;4.20;3.30;;;;;;;;;;5051487;28;20449;-69
2021/06/04 13:22:39;;;;;;;4.60;3.93;;;;;;;;;;5050682;28;20448;-71
2021/06/04 13:25:16;;;;;;;4.27;3.23;;;;;;;;;;5052808;28;20651;-71
2021/06/04 13:27:43;;;;;;;3.90;2.93;;;;;;;;;;5064897;28;20788;-71
2021/06/04 13:30:12;;;;;;;5.03;3.60;;;;;;;;;;5049567;28;20450;-72
2021/06/04 13:32:43;;;;;;;6.47;3.60;;;;;;;;;;5050257;28;21040;-73
2021/06/04 13:35:14;;;;;;;5.00;3.03;;;;;;;;;;5047110;28;20533;-69
2021/06/04 13:37:43;;;;;;;4.10;3.70;;;;;;;;;;5050272;28;20445;-69
2021/06/04 13:40:12;;;;;;;4.73;3.67;;;;;;;;;;5060245;28;20541;-69
2021/06/04 13:42:42;;;;;;;5.00;4.00;;;;;;;;;;5065504;28;20573;-70
2021/06/04 13:45:12;;;;;;;5.77;4.00;;;;;;;;;;5057270;28;20525;-69
2021/06/04 13:47:41;;;;;;;4.13;3.73;;;;;;;;;;5050064;28;20508;-74
2021/06/04 13:50:17;;;;;;;4.67;4.10;;;;;;;;;;5053694;28;20470;-73
2021/06/04 13:52:56;;;;;;;6.93;4.67;;;;;;;;;;5049081;28;20494;-73
2021/06/04 13:55:23;;;;;;;5.53;4.40;;;;;;;;;;5049311;28;20553;-72
2021/06/04 13:57:49;;;;;;;4.63;4.17;;;;;;;;;;5054201;28;20451;-73
2021/06/04 14:00:18;;;;;;;4.40;4.00;;;;;;;;;;5050756;28;20482;-72
2021/06/04 14:02:46;;;;;;;6.33;4.67;;;;;;;;;;5058149;28;20441;-75
2021/06/04 14:05:22;;;;;;;4.67;4.23;;;;;;;;;;5070913;28;20450;-75
2021/06/04 14:07:49;;;;;;;6.07;5.07;;;;;;;;;;5071397;28;20472;-74
2021/06/04 14:10:29;;;;;;;4.90;4.40;;;;;;;;;;5067609;28;20450;-75
2021/06/04 14:13:05;;;;;;;5.63;5.10;;;;;;;;;;5051269;28;20478;-75
2021/06/04 14:15:34;;;;;;;5.53;5.03;;;;;;;;;;5056298;28;20433;-75